createdAt,value
2022-08-28T00:01:10.244Z,96804.75
2022-08-28T00:03:38.721Z,96807.53
2022-08-28T00:06:07.776Z,96801.19
2022-08-28T00:08:36.397Z,96801.63
2022-08-28T00:11:05.550Z,96806.34
2022-08-28T00:13:35.248Z,96802.41
2022-08-28T00:16:03.875Z,96798.09
2022-08-28T00:18:32.978Z,96804.44
2022-08-28T00:21:02.142Z,96802.09
2022-08-28T00:23:42.880Z,96801.28
2022-08-28T00:26:33.711Z,96794.53
2022-08-28T00:29:04.721Z,96800.53
2022-08-28T00:31:34.324Z,96800.09
2022-08-28T00:34:03.401Z,96806.03
2022-08-28T00:36:31.662Z,96804.03
2022-08-28T00:39:00.344Z,96807.53
2022-08-28T00:41:31.293Z,96803.22
2022-08-28T00:44:13.304Z,96807.94
2022-08-28T00:46:45.614Z,96797.22
2022-08-28T00:49:16.280Z,96801.03
2022-08-28T00:52:03.696Z,96795.09
2022-08-28T00:54:35.596Z,96796.69
2022-08-28T00:57:07.395Z,96790.72
2022-08-28T00:59:38.076Z,96800.66
2022-08-28T01:02:08.175Z,96795.56
2022-08-28T01:04:38.552Z,96799.88
2022-08-28T01:07:10.898Z,96800.66
2022-08-28T01:09:44.664Z,96802.66
2022-08-28T01:12:18.242Z,96803.50
2022-08-28T01:14:51.598Z,96799.97
2022-08-28T01:17:23.561Z,96803.53
2022-08-28T01:19:58.313Z,96795.59
2022-08-28T01:22:37.329Z,96789.22
2022-08-28T01:25:12.327Z,96795.09
2022-08-28T01:27:41.949Z,96796.19
2022-08-28T01:30:13.650Z,96791.78
2022-08-28T01:32:45.877Z,96789.91
2022-08-28T01:35:20.294Z,96793.44
2022-08-28T01:37:49.670Z,96798.59
2022-08-28T01:40:25.181Z,96797.06
2022-08-28T01:42:54.458Z,96796.22
2022-08-28T01:45:25.032Z,96799.75
2022-08-28T01:47:53.418Z,96797.06
2022-08-28T01:50:22.904Z,96804.88
2022-08-28T01:52:51.221Z,96803.69
2022-08-28T01:55:21.590Z,96800.50
2022-08-28T01:57:54.873Z,96799.75
2022-08-28T02:00:26.943Z,96802.09
2022-08-28T02:02:57.174Z,96801.31
2022-08-28T02:05:28.263Z,96802.44
2022-08-28T02:07:57.271Z,96810.31
2022-08-28T02:10:30.142Z,96804.34
2022-08-28T02:12:59.456Z,96802.31
2022-08-28T02:15:30.282Z,96796.00
2022-08-28T02:17:58.858Z,96801.53
2022-08-28T02:20:28.644Z,96792.84
2022-08-28T02:22:58.222Z,96805.16
2022-08-28T02:25:29.503Z,96799.53
2022-08-28T02:27:57.854Z,96808.69
2022-08-28T02:30:26.537Z,96805.03
2022-08-28T02:32:55.434Z,96793.59
2022-08-28T02:35:25.287Z,96799.53
2022-08-28T02:37:54.480Z,96807.13
2022-08-28T02:40:27.149Z,96812.25
2022-08-28T02:42:55.558Z,96803.63
2022-08-28T02:45:23.868Z,96809.44
2022-08-28T02:47:54.643Z,96806.25
2022-08-28T02:50:24.042Z,96803.59
2022-08-28T02:52:53.587Z,96802.31
2022-08-28T02:55:24.637Z,96812.59
2022-08-28T02:57:54.765Z,96801.53
2022-08-28T03:00:26.797Z,96807.09
2022-08-28T03:02:55.403Z,96800.06
2022-08-28T03:05:26.865Z,96794.53
2022-08-28T03:07:56.589Z,96795.75
2022-08-28T03:10:25.186Z,96800.84
2022-08-28T03:12:54.830Z,96798.84
2022-08-28T03:15:23.241Z,96796.88
2022-08-28T03:17:51.892Z,96802.44
2022-08-28T03:20:20.369Z,96806.47
2022-08-28T03:23:06.582Z,96806.34
2022-08-28T03:25:34.868Z,96799.69
2022-08-28T03:28:05.104Z,96808.03
2022-08-28T03:30:33.459Z,96805.63
2022-08-28T03:33:01.996Z,96808.81
2022-08-28T03:35:30.836Z,96813.19
2022-08-28T03:37:59.252Z,96819.19
2022-08-28T03:40:27.650Z,96819.19
2022-08-28T03:42:56.052Z,96821.47
2022-08-28T03:45:25.871Z,96815.13
2022-08-28T03:47:54.945Z,96819.84
2022-08-28T03:50:23.682Z,96817.53
2022-08-28T03:52:53.044Z,96823.06
2022-08-28T03:55:22.670Z,96823.06
2022-08-28T03:57:51.615Z,96819.88
2022-08-28T04:00:20.824Z,96824.66
2022-08-28T04:02:50.569Z,96834.59
2022-08-28T04:05:19.208Z,96842.88
2022-08-28T04:07:47.589Z,96837.34
2022-08-28T04:10:15.837Z,96832.97
2022-08-28T04:12:44.797Z,96842.88
2022-08-28T04:15:15.143Z,96837.66
2022-08-28T04:17:43.504Z,96837.72
2022-08-28T04:20:13.603Z,96842.88
2022-08-28T04:22:41.929Z,96840.06
2022-08-28T04:25:11.071Z,96842.00
2022-08-28T04:27:40.103Z,96840.09
2022-08-28T04:30:11.007Z,96843.63
2022-08-28T04:32:40.999Z,96843.28
2022-08-28T04:35:15.459Z,96848.00
2022-08-28T04:37:44.480Z,96847.16
2022-08-28T04:40:16.025Z,96852.25
2022-08-28T04:42:45.278Z,96845.97
2022-08-28T04:45:13.604Z,96853.03
2022-08-28T04:47:41.999Z,96850.66
2022-08-28T04:50:13.412Z,96851.47
2022-08-28T04:52:43.226Z,96847.84
2022-08-28T04:55:11.807Z,96853.72
2022-08-28T04:57:40.115Z,96851.41
2022-08-28T05:00:11.671Z,96864.94
2022-08-28T05:02:40.038Z,96857.06
2022-08-28T05:05:09.378Z,96857.78
2022-08-28T05:07:39.013Z,96862.94
2022-08-28T05:10:11.079Z,96862.56
2022-08-28T05:12:39.352Z,96861.00
2022-08-28T05:15:09.280Z,96866.53
2022-08-28T05:17:37.639Z,96865.00
2022-08-28T05:20:07.644Z,96864.50
2022-08-28T05:22:35.894Z,96864.97
2022-08-28T05:25:06.288Z,96868.50
2022-08-28T05:27:35.421Z,96862.53
2022-08-28T05:30:04.197Z,96867.72
2022-08-28T05:32:32.532Z,96870.47
2022-08-28T05:35:00.960Z,96876.03
2022-08-28T05:37:29.250Z,96876.41
2022-08-28T05:39:57.720Z,96878.31
2022-08-28T05:42:30.562Z,96879.59
2022-08-28T05:45:00.038Z,96878.00
2022-08-28T05:47:28.392Z,96873.16
2022-08-28T05:49:56.935Z,96882.28
2022-08-28T05:52:25.320Z,96879.75
2022-08-28T05:54:53.554Z,96879.06
2022-08-28T05:57:22.178Z,96881.91
2022-08-28T05:59:51.977Z,96885.88
2022-08-28T06:02:20.447Z,96880.44
2022-08-28T06:04:49.047Z,96888.00
2022-08-28T06:07:18.141Z,96892.00
2022-08-28T06:09:46.841Z,96888.00
2022-08-28T06:12:15.687Z,96888.09
2022-08-28T06:14:44.928Z,96888.84
2022-08-28T06:17:14.562Z,96890.78
2022-08-28T06:19:42.853Z,96896.00
2022-08-28T06:22:14.788Z,96886.44
2022-08-28T06:24:43.183Z,96892.88
2022-08-28T06:27:11.544Z,96906.78
2022-08-28T06:29:40.852Z,96896.00
2022-08-28T06:32:09.337Z,96902.69
2022-08-28T06:34:39.403Z,96897.81
2022-08-28T06:37:08.164Z,96901.06
2022-08-28T06:39:36.651Z,96899.47
2022-08-28T06:42:06.786Z,96903.44
2022-08-28T06:44:35.053Z,96904.84
2022-08-28T06:47:03.397Z,96909.19
2022-08-28T06:49:31.710Z,96905.72
2022-08-28T06:52:02.361Z,96909.28
2022-08-28T06:54:31.134Z,96912.47
2022-08-28T06:56:59.388Z,96906.59
2022-08-28T06:59:27.707Z,96907.88
2022-08-28T07:01:56.113Z,96911.91
2022-08-28T07:04:24.803Z,96913.97
2022-08-28T07:06:54.800Z,96917.63
2022-08-28T07:09:25.500Z,96915.59
2022-08-28T07:11:54.444Z,96924.66
2022-08-28T07:14:22.761Z,96923.47
2022-08-28T07:16:54.048Z,96941.28
2022-08-28T07:19:22.317Z,96933.09
2022-08-28T07:21:50.913Z,96940.72
2022-08-28T07:24:20.474Z,96941.47
2022-08-28T07:26:51.316Z,96946.47
2022-08-28T07:29:20.846Z,96944.56
2022-08-28T07:31:52.396Z,96951.41
2022-08-28T07:34:27.292Z,96947.00
2022-08-28T07:36:56.319Z,96954.56
2022-08-28T07:39:25.276Z,96954.13
2022-08-28T07:41:55.129Z,96954.66
2022-08-28T07:44:41.013Z,96946.78
2022-08-28T07:47:11.529Z,96954.72
2022-08-28T07:49:41.534Z,96957.59
2022-08-28T07:52:12.097Z,96952.13
2022-08-28T07:54:41.517Z,96960.09
2022-08-28T07:57:11.294Z,96955.41
2022-08-28T07:59:41.104Z,96957.47
2022-08-28T08:02:11.641Z,96964.06
2022-08-28T08:04:40.261Z,96962.25
2022-08-28T08:07:08.924Z,96970.63
2022-08-28T08:09:40.325Z,96963.94
2022-08-28T08:12:12.198Z,96972.25
2022-08-28T08:14:43.129Z,96975.16
2022-08-28T08:17:12.116Z,96977.97
2022-08-28T08:19:40.981Z,96977.03
2022-08-28T08:22:09.313Z,96984.41
2022-08-28T08:24:37.636Z,96988.78
2022-08-28T08:27:06.737Z,96990.38
2022-08-28T08:29:40.673Z,96984.81
2022-08-28T08:32:12.227Z,96980.81
2022-08-28T08:34:45.774Z,96978.44
2022-08-28T08:37:14.734Z,96982.44
2022-08-28T08:39:44.391Z,96988.00
2022-08-28T08:42:25.469Z,96992.06
2022-08-28T08:44:58.537Z,97003.16
2022-08-28T08:47:39.374Z,97004.25
2022-08-28T08:50:16.523Z,96992.72
2022-08-28T08:53:02.597Z,97002.81
2022-08-28T08:55:35.493Z,96994.88
2022-08-28T08:58:12.710Z,97000.06
2022-08-28T09:01:02.625Z,96993.31
2022-08-28T09:03:49.891Z,97001.34
2022-08-28T09:06:33.367Z,96995.03
2022-08-28T09:09:08.538Z,96998.22
2022-08-28T09:11:50.336Z,97000.53
2022-08-28T09:14:29.647Z,97000.03
2022-08-28T09:17:01.711Z,96996.88
2022-08-28T09:19:31.151Z,97001.88
2022-08-28T09:21:59.894Z,96996.78
2022-08-28T09:24:31.969Z,97007.06
2022-08-28T09:27:03.417Z,97002.81
2022-08-28T09:29:35.715Z,97006.31
2022-08-28T09:32:25.235Z,97010.44
2022-08-28T09:35:12.573Z,97012.00
2022-08-28T09:37:42.791Z,97022.41
2022-08-28T09:40:23.830Z,97012.22
2022-08-28T09:43:23.074Z,97026.41
2022-08-28T09:46:00.509Z,97023.59
2022-08-28T09:48:36.966Z,97017.53
2022-08-28T09:51:09.573Z,97015.22
2022-08-28T09:53:44.513Z,97011.56
2022-08-28T09:56:19.960Z,97010.66
2022-08-28T09:58:54.608Z,97016.44
2022-08-28T10:01:51.235Z,97012.22
2022-08-28T10:04:55.851Z,97011.28
2022-08-28T10:07:38.333Z,97011.44
2022-08-28T10:10:27.868Z,97014.25
2022-08-28T10:13:05.838Z,97016.44
2022-08-28T10:16:00.240Z,97025.34
2022-08-28T10:18:44.634Z,97025.50
2022-08-28T10:21:22.749Z,97031.47
2022-08-28T10:24:31.418Z,97024.34
2022-08-28T10:27:15.347Z,97021.28
2022-08-28T10:30:05.179Z,97022.69
2022-08-28T10:32:58.386Z,97024.34
2022-08-28T10:35:39.805Z,97024.34
2022-08-28T10:38:16.163Z,97022.22
2022-08-28T10:40:56.949Z,97027.91
2022-08-28T10:43:37.350Z,97030.28
2022-08-28T10:46:13.765Z,97028.91
2022-08-28T10:48:50.507Z,97021.38
2022-08-28T10:51:34.752Z,97018.50
2022-08-28T10:54:16.735Z,97022.09
2022-08-28T10:56:56.580Z,97023.16
2022-08-28T10:59:30.025Z,97026.84
2022-08-28T11:01:59.720Z,97017.53
2022-08-28T11:04:30.627Z,97020.69
2022-08-28T11:07:05.213Z,97025.03
2022-08-28T11:09:39.899Z,97020.03
2022-08-28T11:12:36.716Z,97018.97
2022-08-28T11:15:42.089Z,97022.91
2022-08-28T11:19:00.968Z,97032.03
2022-08-28T11:21:36.753Z,97031.38
2022-08-28T11:24:12.197Z,97020.56
2022-08-28T11:26:52.583Z,97014.13
2022-08-28T11:30:35.577Z,97023.88
2022-08-28T11:33:38.179Z,97020.50
2022-08-28T11:36:12.047Z,97018.22
2022-08-28T11:39:21.500Z,97021.06
2022-08-28T11:42:37.318Z,97021.94
2022-08-28T11:45:07.353Z,97019.25
2022-08-28T11:47:56.635Z,97023.50
2022-08-28T11:50:34.281Z,97022.53
2022-08-28T11:53:50.088Z,97023.00
2022-08-28T11:56:43.525Z,97031.25
2022-08-28T11:59:48.105Z,97033.47
2022-08-28T12:03:12.672Z,97026.41
2022-08-28T12:05:55.337Z,97019.69
2022-08-28T12:09:10.599Z,97020.22
2022-08-28T12:12:05.437Z,97020.09
2022-08-28T12:15:11.219Z,97018.75
2022-08-28T12:17:55.439Z,97011.19
2022-08-28T12:20:57.994Z,97015.53
2022-08-28T12:23:39.242Z,97019.47
2022-08-28T12:26:18.143Z,97006.22
2022-08-28T12:28:51.469Z,97008.31
2022-08-28T12:32:15.020Z,97003.06
2022-08-28T12:34:50.970Z,97007.53
2022-08-28T12:37:52.624Z,97002.84
2022-08-28T12:40:26.610Z,97004.69
2022-08-28T12:42:59.233Z,97005.53
2022-08-28T12:45:33.693Z,97010.28
2022-08-28T12:48:17.341Z,97004.53
2022-08-28T12:50:45.687Z,97006.09
2022-08-28T12:53:18.745Z,97004.09
2022-08-28T12:55:47.956Z,97002.13
2022-08-28T12:58:31.365Z,96997.38
2022-08-28T13:01:05.563Z,97000.00
2022-08-28T13:03:41.910Z,97009.41
2022-08-28T13:06:10.804Z,97003.09
2022-08-28T13:08:39.596Z,97002.50
2022-08-28T13:11:08.305Z,97000.53
2022-08-28T13:13:41.277Z,97004.47
2022-08-28T13:16:12.753Z,97002.50
2022-08-28T13:18:59.156Z,97004.25
2022-08-28T13:21:35.871Z,97003.75
2022-08-28T13:24:45.681Z,96996.50
2022-08-28T13:27:25.399Z,97005.84
2022-08-28T13:30:01.564Z,97005.56
2022-08-28T13:32:32.597Z,96992.59
2022-08-28T13:35:39.963Z,96997.81
2022-08-28T13:38:12.539Z,96990.75
2022-08-28T13:40:58.413Z,96993.78
2022-08-28T13:43:42.886Z,97001.25
2022-08-28T13:46:11.624Z,96994.63
2022-08-28T13:48:40.646Z,96994.72
2022-08-28T13:51:20.629Z,96997.31
2022-08-28T13:53:49.745Z,96992.94
2022-08-28T13:56:18.114Z,96994.69
2022-08-28T13:58:50.013Z,96988.34
2022-08-28T14:01:47.169Z,96990.16
2022-08-28T14:04:16.134Z,96991.56
2022-08-28T14:06:47.320Z,96991.81
2022-08-28T14:09:17.746Z,96998.97
2022-08-28T14:11:47.226Z,96991.41
2022-08-28T14:14:15.689Z,96996.38
2022-08-28T14:16:45.757Z,96987.28
2022-08-28T14:19:14.459Z,96994.66
2022-08-28T14:21:43.536Z,96995.69
2022-08-28T14:24:13.839Z,96999.44
2022-08-28T14:26:42.475Z,96996.97
2022-08-28T14:29:14.376Z,96996.94
2022-08-28T14:31:43.970Z,96997.25
2022-08-28T14:34:16.299Z,96995.44
2022-08-28T14:36:45.061Z,96989.72
2022-08-28T14:39:15.051Z,96998.53
2022-08-28T14:41:46.837Z,96987.31
2022-08-28T14:44:16.553Z,96989.94
2022-08-28T14:46:49.342Z,96987.81
2022-08-28T14:49:20.725Z,96991.13
2022-08-28T14:51:51.014Z,96992.88
2022-08-28T14:54:24.519Z,96994.56
2022-08-28T14:56:55.004Z,96997.41
2022-08-28T14:59:27.212Z,97006.53
2022-08-28T15:01:59.993Z,97002.88
2022-08-28T15:04:34.704Z,97003.09
2022-08-28T15:07:10.882Z,96994.53
2022-08-28T15:09:43.857Z,96995.34
2022-08-28T15:12:12.140Z,96987.88
2022-08-28T15:14:40.591Z,96985.81
2022-08-28T15:17:34.354Z,96986.72
2022-08-28T15:20:03.715Z,96987.31
2022-08-28T15:22:32.310Z,96994.53
2022-08-28T15:25:01.910Z,96982.94
2022-08-28T15:27:30.424Z,96989.03
2022-08-28T15:29:59.069Z,96994.31
2022-08-28T15:32:27.419Z,96983.00
2022-08-28T15:34:55.669Z,96990.72
2022-08-28T15:37:24.057Z,96997.34
2022-08-28T15:40:10.063Z,96993.53
2022-08-28T15:42:39.769Z,96987.69
2022-08-28T15:45:08.591Z,96993.53
2022-08-28T15:47:38.184Z,96986.28
2022-08-28T15:50:08.240Z,96986.09
2022-08-28T15:52:39.675Z,96992.47
2022-08-28T15:55:09.078Z,96993.38
2022-08-28T15:57:39.193Z,96991.50
2022-08-28T16:00:10.603Z,96993.06
2022-08-28T16:02:39.566Z,96993.41
2022-08-28T16:05:09.058Z,96995.81
2022-08-28T16:07:37.633Z,96999.63
2022-08-28T16:10:08.384Z,97001.56
2022-08-28T16:12:39.271Z,96994.84
2022-08-28T16:15:11.156Z,97006.78
2022-08-28T16:17:39.920Z,96994.63
2022-08-28T16:20:12.411Z,96994.25
2022-08-28T16:22:42.839Z,96998.94
2022-08-28T16:25:13.145Z,96994.84
2022-08-28T16:27:41.677Z,96999.22
2022-08-28T16:30:15.634Z,96994.38
2022-08-28T16:32:46.752Z,96990.38
2022-08-28T16:35:15.965Z,96990.91
2022-08-28T16:37:44.738Z,96991.44
2022-08-28T16:40:14.992Z,96985.03
2022-08-28T16:42:51.570Z,96990.78
2022-08-28T16:45:21.976Z,96987.22
2022-08-28T16:47:51.396Z,96987.75
2022-08-28T16:50:20.437Z,96983.28
2022-08-28T16:52:49.070Z,96988.78
2022-08-28T16:55:17.660Z,96991.28
2022-08-28T16:57:45.983Z,96993.44
2022-08-28T17:00:15.183Z,96988.88
2022-08-28T17:02:44.953Z,96991.75
2022-08-28T17:05:14.142Z,96989.91
2022-08-28T17:07:43.428Z,96997.28
2022-08-28T17:10:14.834Z,96988.97
2022-08-28T17:12:43.571Z,96989.38
2022-08-28T17:15:13.124Z,96987.03
2022-08-28T17:17:42.160Z,96994.19
2022-08-28T17:20:34.529Z,97003.00
2022-08-28T17:23:02.742Z,97000.19
2022-08-28T17:25:31.049Z,97002.66
2022-08-28T17:28:00.220Z,97001.16
2022-08-28T17:30:28.532Z,97004.41
2022-08-28T17:32:57.083Z,97011.97
2022-08-28T17:35:26.837Z,97014.41
2022-08-28T17:37:55.682Z,97009.66
2022-08-28T17:40:26.097Z,97015.63
2022-08-28T17:42:54.542Z,97014.84
2022-08-28T17:45:23.246Z,97016.88
2022-08-28T17:47:52.779Z,97024.38
2022-08-28T17:50:22.454Z,97025.16
2022-08-28T17:52:52.269Z,97032.63
2022-08-28T17:55:22.162Z,97027.00
2022-08-28T17:57:51.027Z,97030.84
2022-08-28T18:00:20.178Z,97033.19
2022-08-28T18:02:52.046Z,97034.66
2022-08-28T18:05:20.980Z,97030.63
2022-08-28T18:07:51.692Z,97039.28
2022-08-28T18:10:21.765Z,97036.03
2022-08-28T18:12:50.529Z,97041.47
2022-08-28T18:15:19.320Z,97039.81
2022-08-28T18:17:50.421Z,97044.44
2022-08-28T18:20:19.943Z,97051.34
2022-08-28T18:22:49.220Z,97047.34
2022-08-28T18:25:33.701Z,97055.59
2022-08-28T18:28:03.013Z,97060.63
2022-08-28T18:30:31.740Z,97061.28
2022-08-28T18:33:00.795Z,97059.56
2022-08-28T18:35:31.572Z,97070.16
2022-08-28T18:38:01.676Z,97068.84
2022-08-28T18:40:31.819Z,97074.34
2022-08-28T18:43:00.321Z,97075.09
2022-08-28T18:45:29.939Z,97073.22
2022-08-28T18:47:58.969Z,97080.84
2022-08-28T18:50:31.686Z,97084.03
2022-08-28T18:53:01.476Z,97087.16
2022-08-28T18:55:33.505Z,97095.41
2022-08-28T18:58:03.338Z,97099.25
2022-08-28T19:00:34.429Z,97096.06
2022-08-28T19:03:03.126Z,97094.69
2022-08-28T19:05:31.679Z,97096.09
2022-08-28T19:08:02.165Z,97100.25
2022-08-28T19:10:34.402Z,97098.97
2022-08-28T19:13:03.877Z,97107.03
2022-08-28T19:15:34.578Z,97107.72
2022-08-28T19:18:04.212Z,97111.16
2022-08-28T19:20:33.319Z,97109.03
2022-08-28T19:23:02.190Z,97113.56
2022-08-28T19:25:32.506Z,97115.31
2022-08-28T19:28:03.129Z,97119.69
2022-08-28T19:30:34.587Z,97109.44
2022-08-28T19:33:06.013Z,97110.97
2022-08-28T19:35:34.925Z,97118.81
2022-08-28T19:38:03.595Z,97114.59
2022-08-28T19:40:33.661Z,97117.09
2022-08-28T19:43:02.294Z,97121.13
2022-08-28T19:45:34.138Z,97124.25
2022-08-28T19:48:03.248Z,97129.34
2022-08-28T19:50:31.716Z,97132.91
2022-08-28T19:53:00.382Z,97132.63
2022-08-28T19:55:29.928Z,97123.66
2022-08-28T19:58:00.120Z,97127.53
2022-08-28T20:00:31.813Z,97126.13
2022-08-28T20:03:00.515Z,97136.59
2022-08-28T20:05:29.174Z,97133.50
2022-08-28T20:07:57.636Z,97130.13
2022-08-28T20:10:27.779Z,97145.75
2022-08-28T20:12:56.461Z,97143.00
2022-08-28T20:15:26.261Z,97137.34
2022-08-28T20:17:54.643Z,97146.41
2022-08-28T20:20:27.942Z,97138.84
2022-08-28T20:22:58.413Z,97140.00
2022-08-28T20:25:27.626Z,97136.44
2022-08-28T20:28:00.909Z,97147.03
2022-08-28T20:30:31.765Z,97143.88
2022-08-28T20:33:02.054Z,97144.25
2022-08-28T20:35:30.817Z,97152.41
2022-08-28T20:37:59.548Z,97148.84
2022-08-28T20:40:28.471Z,97152.91
2022-08-28T20:42:57.130Z,97142.38
2022-08-28T20:45:25.805Z,97148.09
2022-08-28T20:47:55.664Z,97147.75
2022-08-28T20:50:24.648Z,97143.91
2022-08-28T20:52:53.066Z,97134.31
2022-08-28T20:55:21.683Z,97148.06
2022-08-28T20:57:50.081Z,97151.19
2022-08-28T21:00:18.438Z,97152.34
2022-08-28T21:02:46.729Z,97151.56
2022-08-28T21:05:16.438Z,97154.69
2022-08-28T21:07:44.984Z,97153.06
2022-08-28T21:10:13.206Z,97145.94
2022-08-28T21:12:41.567Z,97145.13
2022-08-28T21:15:13.424Z,97148.25
2022-08-28T21:17:42.630Z,97147.91
2022-08-28T21:20:16.215Z,97152.47
2022-08-28T21:22:45.462Z,97147.47
2022-08-28T21:25:15.391Z,97152.69
2022-08-28T21:27:44.637Z,97155.59
2022-08-28T21:30:17.758Z,97153.75
2022-08-28T21:32:47.424Z,97156.53
2022-08-28T21:35:19.962Z,97159.44
2022-08-28T21:37:49.690Z,97159.22
2022-08-28T21:40:21.474Z,97159.47
2022-08-28T21:42:50.644Z,97157.56
2022-08-28T21:45:19.944Z,97159.00
2022-08-28T21:47:49.345Z,97158.56
2022-08-28T21:50:24.176Z,97159.34
2022-08-28T21:52:58.289Z,97159.44
2022-08-28T21:55:39.057Z,97159.88
2022-08-28T21:58:19.514Z,97149.13
2022-08-28T22:01:02.172Z,97152.09
2022-08-28T22:03:40.234Z,97149.56
2022-08-28T22:06:20.136Z,97154.44
2022-08-28T22:08:56.229Z,97159.00
2022-08-28T22:11:28.753Z,97153.72
2022-08-28T22:14:06.029Z,97159.31
2022-08-28T22:16:40.947Z,97164.34
2022-08-28T22:19:16.160Z,97166.94
2022-08-28T22:22:08.165Z,97165.78
2022-08-28T22:24:40.907Z,97168.56
2022-08-28T22:27:13.616Z,97176.06
2022-08-28T22:29:43.876Z,97171.81
2022-08-28T22:32:16.391Z,97178.94
2022-08-28T22:34:51.592Z,97172.69
2022-08-28T22:37:33.865Z,97176.47
2022-08-28T22:40:13.387Z,97178.22
2022-08-28T22:42:45.287Z,97182.13
2022-08-28T22:45:16.286Z,97179.06
2022-08-28T22:47:57.806Z,97182.22
2022-08-28T22:50:37.769Z,97186.50
2022-08-28T22:53:19.344Z,97183.31
2022-08-28T22:55:48.845Z,97190.00
2022-08-28T22:58:18.258Z,97178.94
2022-08-28T23:00:53.784Z,97178.06
2022-08-28T23:03:25.175Z,97174.78
2022-08-28T23:05:54.745Z,97180.97
2022-08-28T23:08:33.729Z,97183.13
2022-08-28T23:11:05.525Z,97178.13
2022-08-28T23:13:35.541Z,97181.97
2022-08-28T23:16:05.599Z,97177.00
2022-08-28T23:19:06.498Z,97177.66
2022-08-28T23:21:32.207Z,97176.03
2022-08-28T23:24:04.486Z,97171.22
2022-08-28T23:26:39.573Z,97167.31
2022-08-28T23:29:15.570Z,97169.28
2022-08-28T23:31:45.645Z,97175.97
2022-08-28T23:34:20.676Z,97173.19
2022-08-28T23:36:51.971Z,97169.19
2022-08-28T23:39:25.982Z,97163.22
2022-08-28T23:42:02.547Z,97165.47
2022-08-28T23:44:36.859Z,97163.50
2022-08-28T23:47:06.876Z,97169.91
2022-08-28T23:49:42.905Z,97174.69
2022-08-28T23:52:20.921Z,97166.78
2022-08-28T23:55:01.871Z,97169.66
2022-08-28T23:57:31.725Z,97167.59
